createdAt,value
2018-09-24T00:00:03.954Z,17.53
2018-09-24T00:02:31.668Z,23.80
2018-09-24T00:04:59.485Z,27.03
2018-09-24T00:07:27.249Z,16.70
2018-09-24T00:09:55.234Z,18.60
2018-09-24T00:12:23.031Z,18.67
2018-09-24T00:14:50.838Z,19.30
2018-09-24T00:17:18.651Z,20.00
2018-09-24T00:19:46.441Z,13.90
2018-09-24T00:22:14.241Z,19.77
2018-09-24T00:24:42.047Z,20.03
2018-09-24T00:27:09.827Z,25.20
2018-09-24T00:29:37.601Z,18.87
2018-09-24T00:32:05.404Z,16.43
2018-09-24T00:34:33.202Z,13.90
2018-09-24T00:37:00.978Z,18.87
2018-09-24T00:39:28.788Z,15.70
2018-09-24T00:41:56.566Z,14.13
2018-09-24T00:44:24.333Z,12.90
2018-09-24T00:46:52.096Z,21.43
2018-09-24T00:49:19.863Z,19.00
2018-09-24T00:51:47.652Z,24.20
2018-09-24T00:54:15.444Z,19.30
2018-09-24T00:56:43.244Z,17.70
2018-09-24T00:59:11.070Z,18.57
2018-09-24T01:01:38.865Z,18.00
2018-09-24T01:04:06.680Z,17.87
2018-09-24T01:06:34.440Z,14.73
2018-09-24T01:09:02.210Z,14.53
2018-09-24T01:11:30.195Z,16.77
2018-09-24T01:13:58.014Z,14.47
2018-09-24T01:16:25.811Z,18.03
2018-09-24T01:18:53.611Z,20.27
2018-09-24T01:21:21.440Z,23.93
2018-09-24T01:23:49.235Z,10.87
2018-09-24T01:26:17.038Z,14.70
2018-09-24T01:28:44.834Z,16.43
2018-09-24T01:31:12.642Z,16.73
2018-09-24T01:33:40.444Z,25.30
2018-09-24T01:36:08.269Z,27.70
2018-09-24T01:38:36.037Z,24.67
2018-09-24T01:41:03.842Z,18.83
2018-09-24T01:43:31.622Z,18.90
2018-09-24T01:45:59.451Z,12.07
2018-09-24T01:48:27.221Z,19.00
2018-09-24T01:50:55.087Z,20.73
2018-09-24T01:53:22.912Z,20.50
2018-09-24T01:55:51.418Z,20.43
2018-09-24T01:58:19.433Z,19.53
2018-09-24T02:00:47.317Z,26.20
2018-09-24T02:03:15.091Z,19.57
2018-09-24T02:05:42.862Z,21.03
2018-09-24T02:08:10.676Z,14.97
2018-09-24T02:10:38.473Z,19.67
2018-09-24T02:13:06.350Z,22.73
2018-09-24T02:15:34.174Z,22.00
2018-09-24T02:18:01.969Z,19.00
2018-09-24T02:20:29.814Z,23.63
2018-09-24T02:22:57.612Z,17.67
2018-09-24T02:25:25.445Z,21.00
2018-09-24T02:27:53.247Z,27.70
2018-09-24T02:30:21.062Z,23.87
2018-09-24T02:32:48.837Z,33.23
2018-09-24T02:35:17.737Z,37.33
2018-09-24T02:37:45.536Z,39.03
2018-09-24T02:40:20.544Z,32.43
2018-09-24T02:42:48.932Z,23.40
2018-09-24T02:45:16.713Z,19.77
2018-09-24T02:47:44.572Z,23.87
2018-09-24T02:50:12.370Z,14.03
2018-09-24T02:53:14.644Z,17.63
2018-09-24T03:00:54.969Z,18.27
2018-09-24T03:03:22.794Z,19.83
2018-09-24T03:05:51.508Z,22.37
2018-09-24T03:08:19.368Z,19.27
2018-09-24T03:10:47.254Z,25.40
2018-09-24T03:13:15.101Z,14.70
2018-09-24T03:15:42.890Z,14.50
2018-09-24T03:18:10.882Z,22.33
2018-09-24T03:20:43.065Z,16.80
2018-09-24T03:23:10.901Z,18.40
2018-09-24T03:25:39.198Z,10.67
2018-09-24T03:28:08.021Z,17.67
2018-09-24T03:30:40.366Z,18.70
2018-09-24T03:33:08.184Z,11.53
2018-09-24T03:36:02.282Z,23.07
2018-09-24T03:38:38.184Z,12.43
2018-09-24T03:41:06.335Z,26.20
2018-09-24T03:43:34.281Z,20.27
2018-09-24T03:46:02.193Z,17.73
2018-09-24T03:48:30.163Z,15.67
2018-09-24T03:50:58.036Z,16.60
2018-09-24T03:53:25.938Z,22.87
2018-09-24T03:55:53.841Z,10.40
2018-09-24T03:58:21.822Z,10.70
2018-09-24T04:00:50.332Z,17.07
2018-09-24T04:03:18.226Z,11.03
2018-09-24T04:05:51.758Z,18.13
2018-09-24T04:08:25.196Z,16.27
2018-09-24T04:10:58.587Z,18.10
2018-09-24T04:13:32.075Z,9.13
2018-09-24T04:16:05.444Z,11.97
2018-09-24T04:18:38.903Z,13.47
2018-09-24T04:21:12.257Z,18.97
2018-09-24T04:23:45.624Z,11.27
2018-09-24T04:26:19.018Z,12.43
2018-09-24T04:28:52.383Z,10.70
2018-09-24T04:31:25.825Z,9.30
2018-09-24T04:33:59.313Z,8.70
2018-09-24T04:36:32.755Z,13.70
2018-09-24T04:39:07.106Z,10.37
2018-09-24T04:41:40.510Z,9.47
2018-09-24T04:44:13.959Z,19.90
2018-09-24T04:46:47.277Z,11.30
2018-09-24T04:49:20.760Z,8.90
2018-09-24T04:51:54.043Z,34.73
2018-09-24T04:54:27.483Z,8.80
2018-09-24T04:57:00.851Z,14.57
2018-09-24T04:59:34.325Z,7.17
2018-09-24T05:02:07.829Z,9.47
2018-09-24T05:04:41.263Z,7.07
2018-09-24T05:07:14.680Z,10.33
2018-09-24T05:09:47.993Z,5.17
2018-09-24T05:12:21.325Z,9.93
2018-09-24T05:14:54.580Z,12.73
2018-09-24T05:17:27.937Z,16.50
2018-09-24T05:20:01.252Z,19.80
2018-09-24T05:22:34.528Z,17.33
2018-09-24T05:25:07.885Z,12.67
2018-09-24T05:27:41.098Z,14.33
2018-09-24T05:30:14.484Z,17.80
2018-09-24T05:32:47.934Z,24.53
2018-09-24T05:35:22.219Z,20.40
2018-09-24T05:37:55.695Z,25.10
2018-09-24T05:40:29.045Z,16.00
2018-09-24T05:43:02.478Z,18.60
2018-09-24T05:45:35.935Z,26.37
2018-09-24T05:48:09.424Z,30.23
2018-09-24T05:50:42.841Z,20.97
2018-09-24T05:53:16.132Z,23.83
2018-09-24T05:55:51.533Z,21.80
2018-09-24T05:58:24.831Z,18.63
2018-09-24T06:00:58.193Z,22.47
2018-09-24T06:03:31.607Z,19.47
2018-09-24T06:06:04.944Z,24.40
2018-09-24T06:08:38.276Z,27.03
2018-09-24T06:11:13.607Z,23.47
2018-09-24T06:13:46.962Z,24.33
2018-09-24T06:16:21.200Z,27.07
2018-09-24T06:18:54.753Z,23.50
2018-09-24T06:21:28.129Z,26.50
2018-09-24T06:24:01.518Z,22.57
2018-09-24T06:26:34.822Z,22.37
2018-09-24T06:29:08.097Z,24.07
2018-09-24T06:31:41.563Z,28.63
2018-09-24T06:34:15.084Z,24.53
2018-09-24T06:36:48.408Z,26.63
2018-09-24T06:39:21.796Z,14.20
2018-09-24T06:41:55.125Z,11.23
2018-09-24T06:44:28.517Z,7.20
2018-09-24T06:47:01.950Z,7.60
2018-09-24T06:49:35.492Z,1.73
2018-09-24T06:52:08.832Z,2.50
2018-09-24T06:54:42.127Z,2.27
2018-09-24T06:57:15.491Z,1.90
2018-09-24T06:59:48.900Z,3.77
2018-09-24T07:02:22.286Z,5.30
2018-09-24T07:04:56.581Z,6.37
2018-09-24T07:07:29.997Z,2.23
2018-09-24T07:10:03.372Z,3.80
2018-09-24T07:12:36.735Z,7.33
2018-09-24T07:15:10.163Z,1.03
2018-09-24T07:17:43.705Z,1.90
2018-09-24T07:20:17.057Z,2.73
2018-09-24T07:22:50.479Z,2.37
2018-09-24T07:25:23.909Z,3.30
2018-09-24T07:27:58.472Z,5.50
2018-09-24T07:30:31.824Z,5.83
2018-09-24T07:33:05.294Z,5.67
2018-09-24T07:35:38.765Z,3.30
2018-09-24T07:38:12.242Z,3.50
2018-09-24T07:40:45.578Z,2.30
2018-09-24T07:43:19.011Z,3.53
2018-09-24T07:45:52.427Z,3.10
2018-09-24T07:48:25.772Z,4.57
2018-09-24T07:50:59.263Z,2.80
2018-09-24T07:53:32.696Z,1.57
2018-09-24T07:56:06.102Z,3.60
2018-09-24T07:58:39.392Z,3.23
2018-09-24T08:01:12.910Z,4.50
2018-09-24T08:03:46.222Z,2.00
2018-09-24T08:06:19.534Z,2.03
2018-09-24T08:08:53.035Z,3.97
2018-09-24T08:11:26.497Z,4.80
2018-09-24T08:13:59.968Z,2.30
2018-09-24T08:16:34.287Z,5.33
2018-09-24T08:19:07.677Z,5.47
2018-09-24T08:21:41.086Z,3.67
2018-09-24T08:24:14.416Z,2.17
2018-09-24T08:26:47.887Z,2.10
2018-09-24T08:29:21.322Z,1.27
2018-09-24T08:31:54.680Z,1.50
2018-09-24T08:34:27.945Z,3.43
2018-09-24T08:37:01.270Z,2.43
2018-09-24T08:39:34.834Z,3.77
2018-09-24T08:42:08.304Z,6.90
2018-09-24T08:44:41.692Z,1.47
2018-09-24T08:47:16.115Z,0.93
2018-09-24T08:49:49.397Z,3.90
2018-09-24T08:52:22.628Z,1.87
2018-09-24T08:54:55.936Z,0.47
2018-09-24T08:57:42.444Z,1.43
2018-09-24T09:00:15.919Z,0.40
2018-09-24T09:05:27.785Z,0.87
2018-09-24T09:08:01.410Z,0.73
2018-09-24T09:10:34.898Z,1.40
2018-09-24T09:13:08.162Z,1.30
2018-09-24T09:15:41.572Z,2.57
2018-09-24T09:18:14.906Z,5.43
2018-09-24T09:20:48.225Z,0.10
2018-09-24T09:23:21.486Z,1.33
2018-09-24T09:25:54.795Z,0.10
2018-09-24T09:28:28.036Z,1.47
2018-09-24T09:31:01.545Z,0.30
2018-09-24T09:33:34.901Z,1.30
2018-09-24T09:36:09.317Z,0.20
2018-09-24T09:38:42.582Z,1.03
2018-09-24T09:41:17.003Z,1.13
2018-09-24T09:43:50.306Z,0.80
2018-09-24T09:46:23.606Z,0.30
2018-09-24T09:48:57.012Z,1.10
2018-09-24T09:51:30.317Z,0.63
2018-09-24T09:54:03.905Z,0.20
2018-09-24T09:56:37.296Z,2.20
2018-09-24T09:59:10.703Z,0.83
2018-09-24T10:01:44.019Z,1.03
2018-09-24T10:04:17.313Z,1.30
2018-09-24T10:06:50.717Z,1.30
2018-09-24T10:09:23.991Z,0.77
2018-09-24T10:11:57.418Z,0.63
2018-09-24T10:14:30.907Z,0.10
2018-09-24T10:17:04.243Z,1.80
2018-09-24T10:19:37.659Z,1.03
2018-09-24T10:22:11.092Z,0.37
2018-09-24T11:10:04.111Z,2.93
2018-09-24T11:12:37.504Z,3.80
2018-09-24T11:15:11.044Z,1.77
2018-09-24T11:17:44.619Z,1.90
2018-09-24T11:20:17.973Z,1.37
2018-09-24T11:22:52.481Z,1.97
2018-09-24T11:25:25.937Z,3.00
2018-09-24T11:27:59.525Z,2.87
2018-09-24T11:30:33.146Z,0.70
2018-09-24T11:33:06.722Z,0.77
2018-09-24T11:35:40.270Z,1.60
2018-09-24T11:38:22.732Z,2.47
2018-09-24T11:40:56.130Z,1.67
2018-09-24T11:43:29.567Z,1.23
2018-09-24T11:46:03.112Z,5.80
2018-09-24T11:48:38.504Z,1.37
2018-09-24T11:51:12.306Z,2.43
2018-09-24T11:53:45.768Z,1.80
2018-09-24T11:56:19.232Z,2.47
2018-09-24T11:58:52.734Z,3.03
2018-09-24T12:01:26.235Z,0.57
2018-09-24T12:03:59.649Z,0.50
2018-09-24T12:06:33.037Z,2.07
2018-09-24T12:09:06.542Z,0.73
2018-09-24T12:11:39.962Z,1.10
2018-09-24T12:14:13.415Z,1.73
2018-09-24T12:16:46.726Z,1.80
2018-09-24T12:19:20.284Z,2.90
2018-09-24T12:21:53.727Z,0.50
2018-09-24T12:24:27.152Z,1.40
2018-09-24T12:27:00.479Z,0.50
2018-09-24T12:29:34.164Z,3.03
2018-09-24T12:32:07.527Z,1.20
2018-09-24T12:34:41.100Z,0.40
2018-09-24T12:37:14.670Z,0.50
2018-09-24T12:39:48.274Z,0.30
2018-09-24T12:42:21.928Z,0.30
2018-09-24T12:44:55.371Z,0.10
2018-09-24T12:47:28.898Z,1.10
2018-09-24T12:50:02.331Z,1.13
2018-09-24T12:56:21.865Z,2.23
2018-09-24T12:58:55.536Z,2.10
2018-09-24T13:01:28.946Z,2.43
2018-09-24T13:04:02.484Z,1.33
2018-09-24T13:06:35.898Z,0.97
2018-09-24T13:09:10.945Z,1.03
2018-09-24T13:11:44.528Z,0.27
2018-09-24T13:14:18.051Z,3.23
2018-09-24T13:16:51.498Z,1.10
2018-09-24T13:19:24.977Z,2.40
2018-09-24T13:21:58.293Z,1.23
2018-09-24T13:24:31.723Z,1.97
2018-09-24T13:27:05.333Z,2.33
2018-09-24T13:29:38.643Z,1.20
2018-09-24T13:32:12.038Z,3.87
2018-09-24T13:34:45.451Z,4.70
2018-09-24T13:37:18.842Z,1.10
2018-09-24T13:39:52.301Z,1.83
2018-09-24T13:42:25.836Z,2.43
2018-09-24T13:44:59.474Z,2.63
2018-09-24T13:47:32.945Z,5.37
2018-09-24T13:50:06.430Z,2.00
2018-09-24T13:52:39.794Z,2.43
2018-09-24T13:55:13.574Z,3.73
2018-09-24T13:57:48.229Z,3.63
2018-09-24T14:00:21.750Z,2.47
2018-09-24T14:02:55.430Z,2.10
2018-09-24T14:05:28.815Z,4.50
2018-09-24T14:08:03.231Z,2.27
2018-09-24T14:10:36.644Z,4.67
2018-09-24T14:13:11.351Z,1.10
2018-09-24T14:15:46.220Z,1.73
2018-09-24T14:18:19.584Z,2.07
2018-09-24T14:20:53.176Z,2.93
2018-09-24T14:23:26.796Z,0.73
2018-09-24T14:26:00.223Z,1.70
2018-09-24T14:28:36.940Z,3.67
2018-09-24T14:31:11.353Z,1.17
2018-09-24T14:33:47.571Z,0.80
2018-09-24T14:36:21.163Z,1.33
2018-09-24T14:38:54.580Z,8.60
2018-09-24T14:41:28.204Z,5.50
2018-09-24T14:44:01.576Z,3.60
2018-09-24T14:46:35.250Z,6.50
2018-09-24T14:49:08.573Z,2.30
2018-09-24T14:51:41.954Z,3.47
2018-09-24T14:54:15.377Z,3.67
2018-09-24T14:56:49.041Z,4.00
2018-09-24T14:59:22.505Z,3.60
2018-09-24T15:01:56.082Z,3.70
2018-09-24T15:04:29.754Z,4.03
2018-09-24T15:07:03.204Z,3.23
2018-09-24T15:09:36.686Z,2.27
2018-09-24T15:12:11.135Z,2.30
2018-09-24T15:14:44.736Z,2.97
2018-09-24T15:17:18.111Z,3.30
2018-09-24T15:19:52.871Z,2.47
2018-09-24T15:22:26.326Z,4.67
2018-09-24T15:24:59.893Z,2.53
2018-09-24T15:27:33.225Z,1.20
2018-09-24T15:30:06.748Z,3.20
2018-09-24T15:32:40.118Z,4.00
2018-09-24T15:35:13.804Z,2.77
2018-09-24T15:37:47.508Z,4.93
2018-09-24T15:40:20.933Z,8.40
2018-09-24T15:42:54.537Z,1.93
2018-09-24T15:45:27.869Z,1.30
2018-09-24T15:48:01.567Z,1.10
2018-09-24T15:50:35.019Z,1.80
2018-09-24T15:53:08.441Z,3.80
2018-09-24T15:55:41.825Z,3.03
2018-09-24T15:58:15.236Z,6.53
2018-09-24T16:00:48.840Z,1.80
2018-09-24T16:03:22.621Z,5.73
2018-09-24T16:05:55.948Z,3.43
2018-09-24T16:08:29.271Z,5.60
2018-09-24T16:11:03.855Z,1.67
2018-09-24T16:13:37.272Z,4.43
2018-09-24T16:16:11.281Z,4.33
2018-09-24T16:18:44.709Z,3.00
2018-09-24T16:21:18.015Z,2.30
2018-09-24T16:23:51.472Z,2.60
2018-09-24T16:26:24.834Z,3.50
2018-09-24T16:28:58.232Z,2.00
2018-09-24T16:31:31.640Z,3.67
2018-09-24T16:34:04.981Z,1.90
2018-09-24T16:36:38.389Z,1.90
2018-09-24T16:39:13.070Z,2.07
2018-09-24T16:41:46.682Z,1.27
2018-09-24T16:44:20.338Z,5.47
2018-09-24T16:46:53.745Z,1.77
2018-09-24T16:49:27.102Z,2.13
2018-09-24T16:52:00.473Z,4.13
2018-09-24T16:54:33.862Z,3.60
2018-09-24T16:57:07.292Z,3.30
2018-09-24T16:59:40.570Z,1.33
2018-09-24T17:02:14.114Z,1.00
2018-09-24T17:04:47.485Z,1.00
2018-09-24T17:07:20.941Z,4.77
2018-09-24T17:09:54.266Z,0.93
2018-09-24T17:12:27.644Z,1.30
2018-09-24T17:15:01.190Z,2.20
2018-09-24T17:17:34.555Z,2.77
2018-09-24T17:20:07.890Z,4.13
2018-09-24T17:22:41.251Z,1.80
2018-09-24T17:25:14.637Z,5.80
2018-09-24T17:27:47.938Z,1.17
2018-09-24T17:30:21.257Z,1.53
2018-09-24T17:32:54.731Z,2.07
2018-09-24T17:35:28.026Z,3.17
2018-09-24T17:38:01.434Z,1.53
2018-09-24T17:40:34.866Z,2.40
2018-09-24T17:43:08.282Z,2.77
2018-09-24T17:45:41.793Z,2.40
2018-09-24T17:48:15.127Z,1.17
2018-09-24T17:50:48.447Z,3.87
2018-09-24T17:53:21.945Z,0.80
2018-09-24T17:55:58.013Z,1.77
2018-09-24T17:58:31.510Z,0.90
2018-09-24T18:01:04.829Z,0.83
2018-09-24T18:03:38.233Z,2.87
2018-09-24T18:06:11.580Z,4.70
2018-09-24T18:08:45.012Z,3.53
2018-09-24T18:11:18.405Z,3.27
2018-09-24T18:13:51.802Z,6.43
2018-09-24T18:16:25.199Z,2.63
2018-09-24T18:18:58.793Z,2.33
2018-09-24T18:21:32.168Z,1.90
2018-09-24T18:24:05.708Z,3.93
2018-09-24T18:26:39.142Z,3.50
2018-09-24T18:29:12.582Z,2.70
2018-09-24T18:31:46.132Z,3.27
2018-09-24T18:34:20.421Z,2.17
2018-09-24T18:36:54.751Z,6.93
2018-09-24T18:39:28.048Z,4.93
2018-09-24T18:42:01.505Z,3.87
2018-09-24T18:44:34.911Z,4.17
2018-09-24T18:47:08.363Z,6.27
2018-09-24T18:49:41.967Z,1.70
2018-09-24T18:52:15.483Z,3.07
2018-09-24T18:54:48.862Z,8.00
2018-09-24T18:57:22.204Z,4.80
2018-09-24T18:59:55.498Z,6.47
2018-09-24T19:02:29.884Z,3.77
2018-09-24T19:05:03.272Z,3.03
2018-09-24T19:07:37.727Z,5.37
2018-09-24T19:10:11.177Z,2.50
2018-09-24T19:12:44.612Z,5.60
2018-09-24T19:15:18.028Z,7.00
2018-09-24T19:17:51.342Z,4.80
2018-09-24T19:20:24.807Z,1.13
2018-09-24T19:22:58.097Z,2.63
2018-09-24T19:25:31.471Z,5.87
2018-09-24T19:28:05.976Z,6.03
2018-09-24T19:30:39.325Z,1.17
2018-09-24T19:33:12.769Z,12.87
2018-09-24T19:35:46.186Z,2.03
2018-09-24T19:38:19.550Z,4.57
2018-09-24T19:40:53.024Z,8.30
2018-09-24T19:43:26.461Z,6.90
2018-09-24T19:45:59.838Z,10.87
2018-09-24T19:48:33.292Z,7.33
2018-09-24T19:51:06.670Z,11.37
2018-09-24T19:53:40.040Z,14.33
2018-09-24T19:56:13.509Z,11.27
2018-09-24T19:58:46.928Z,17.07
2018-09-24T20:01:21.243Z,15.83
2018-09-24T20:03:54.667Z,14.37
2018-09-24T20:06:28.015Z,17.70
2018-09-24T20:09:01.312Z,15.33
2018-09-24T20:11:34.673Z,29.00
2018-09-24T20:14:08.077Z,35.33
2018-09-24T20:16:41.441Z,258.03
2018-09-24T20:19:14.824Z,46.60
2018-09-24T20:21:49.291Z,35.07
2018-09-24T20:24:22.668Z,60.13
2018-09-24T20:26:55.908Z,59.60
2018-09-24T20:29:29.275Z,55.33
2018-09-24T20:32:02.627Z,36.73
2018-09-24T20:34:36.040Z,30.03
2018-09-24T20:37:09.409Z,38.93
2018-09-24T20:39:42.810Z,40.90
2018-09-24T20:42:17.213Z,51.30
2018-09-24T20:44:50.608Z,57.50
2018-09-24T20:47:23.982Z,44.13
2018-09-24T20:49:57.392Z,43.60
2018-09-24T20:52:30.977Z,41.50
2018-09-24T20:55:04.353Z,40.87
2018-09-24T20:57:37.769Z,40.90
2018-09-24T21:00:11.338Z,38.27
2018-09-24T21:02:44.801Z,35.00
2018-09-24T21:05:19.121Z,46.50
2018-09-24T21:07:52.595Z,45.53
2018-09-24T21:10:25.945Z,40.47
2018-09-24T21:12:59.427Z,42.77
2018-09-24T21:15:32.911Z,34.90
2018-09-24T21:18:06.355Z,33.20
2018-09-24T21:20:39.889Z,32.47
2018-09-24T21:23:13.265Z,39.90
2018-09-24T21:25:46.559Z,30.63
2018-09-24T21:28:20.016Z,31.30
2018-09-24T21:30:53.529Z,31.57
2018-09-24T21:33:26.973Z,31.47
2018-09-24T21:36:00.412Z,33.03
2018-09-24T21:38:33.850Z,34.97
2018-09-24T21:41:07.313Z,22.80
2018-09-24T21:43:40.768Z,21.50
2018-09-24T21:46:14.293Z,17.87
2018-09-24T21:48:47.516Z,23.67
2018-09-24T21:51:22.477Z,29.83
2018-09-24T21:53:56.058Z,25.70
2018-09-24T21:59:42.905Z,25.80
2018-09-24T22:02:16.307Z,20.50
2018-09-24T22:04:49.797Z,23.33
2018-09-24T22:07:23.149Z,34.03
2018-09-24T22:09:56.520Z,30.33
2018-09-24T22:12:29.787Z,29.07
2018-09-24T22:15:03.182Z,32.43
2018-09-24T22:17:36.623Z,34.00
2018-09-24T22:20:10.200Z,32.00
2018-09-24T22:22:43.659Z,31.70
2018-09-24T22:25:17.122Z,38.03
2018-09-24T22:27:50.584Z,33.23
2018-09-24T22:30:23.972Z,38.33
2018-09-24T22:32:57.371Z,37.40
2018-09-24T22:35:30.807Z,46.03
2018-09-24T22:38:04.277Z,40.03
2018-09-24T22:40:37.701Z,44.93
2018-09-24T22:43:11.046Z,37.77
2018-09-24T22:45:44.335Z,41.93
2018-09-24T22:48:17.728Z,34.97
2018-09-24T22:50:51.198Z,41.90
2018-09-24T22:53:24.526Z,36.83
2018-09-24T22:55:58.008Z,44.37
2018-09-24T22:58:31.490Z,49.30
2018-09-24T23:01:04.807Z,48.40
2018-09-24T23:03:38.223Z,53.97
2018-09-24T23:06:11.786Z,44.60
2018-09-24T23:08:45.216Z,51.27
2018-09-24T23:11:19.713Z,57.77
2018-09-24T23:13:53.117Z,62.67
2018-09-24T23:16:26.538Z,63.47
2018-09-24T23:18:59.897Z,66.07
2018-09-24T23:21:33.217Z,61.37
2018-09-24T23:24:06.695Z,49.40
2018-09-24T23:26:40.023Z,38.57
2018-09-24T23:29:13.400Z,45.00
2018-09-24T23:31:47.735Z,59.17
2018-09-24T23:34:21.255Z,52.53
2018-09-24T23:36:54.567Z,63.43
2018-09-24T23:39:27.919Z,68.57
2018-09-24T23:42:01.328Z,57.63
2018-09-24T23:44:34.801Z,52.90
2018-09-24T23:47:08.197Z,57.10
2018-09-24T23:49:41.564Z,56.10
2018-09-24T23:52:14.990Z,66.63
2018-09-24T23:54:48.335Z,59.90
2018-09-24T23:57:21.767Z,59.63
2018-09-24T23:59:55.129Z,58.53
